createdAt,value
2023-03-29T00:03:50.004Z,6.00
2023-03-29T00:09:10.612Z,5.57
2023-03-29T00:14:31.740Z,7.90
2023-03-29T00:19:52.599Z,7.60
2023-03-29T00:25:14.362Z,8.68
2023-03-29T00:30:35.622Z,10.13
2023-03-29T00:35:56.442Z,9.50
2023-03-29T00:41:17.349Z,10.85
2023-03-29T00:46:38.407Z,10.60
2023-03-29T00:51:59.702Z,9.95
2023-03-29T00:57:22.795Z,10.45
2023-03-29T01:02:51.150Z,10.88
2023-03-29T01:08:19.124Z,10.55
2023-03-29T01:13:52.905Z,11.88
2023-03-29T01:19:18.358Z,9.45
2023-03-29T01:24:53.563Z,9.77
2023-03-29T01:30:30.617Z,9.18
2023-03-29T01:36:05.254Z,10.00
2023-03-29T01:41:39.786Z,8.93
2023-03-29T01:47:10.832Z,8.70
2023-03-29T01:52:38.238Z,8.73
2023-03-29T01:58:01.937Z,8.48
2023-03-29T02:03:26.617Z,8.20
2023-03-29T02:08:51.221Z,7.30
2023-03-29T02:14:13.877Z,8.05
2023-03-29T02:19:34.803Z,6.68
2023-03-29T02:24:59.447Z,6.22
2023-03-29T02:30:21.177Z,6.35
2023-03-29T02:35:54.636Z,6.47
2023-03-29T02:41:17.139Z,7.13
2023-03-29T02:46:38.434Z,6.65
2023-03-29T02:52:07.460Z,5.97
2023-03-29T02:57:29.537Z,5.33
2023-03-29T03:02:51.043Z,7.35
2023-03-29T03:08:12.520Z,11.30
2023-03-29T03:13:33.240Z,12.43
2023-03-29T03:18:55.708Z,7.60
2023-03-29T03:24:17.751Z,5.50
2023-03-29T03:29:38.725Z,6.95
2023-03-29T03:35:05.584Z,5.40
2023-03-29T03:40:28.264Z,5.55
2023-03-29T03:45:49.718Z,4.90
2023-03-29T03:51:14.156Z,5.20
2023-03-29T03:56:35.077Z,5.13
2023-03-29T04:02:05.914Z,5.65
2023-03-29T04:07:29.329Z,4.88
2023-03-29T04:13:17.200Z,5.55
2023-03-29T04:18:56.615Z,6.75
2023-03-29T04:24:18.341Z,6.18
2023-03-29T04:29:57.269Z,5.70
2023-03-29T04:35:33.804Z,5.32
2023-03-29T04:40:55.460Z,5.40
2023-03-29T04:46:44.300Z,4.68
2023-03-29T04:52:17.492Z,6.30
2023-03-29T04:57:38.079Z,6.30
2023-03-29T05:03:07.995Z,5.85
2023-03-29T05:08:40.278Z,6.50
2023-03-29T05:14:08.749Z,6.97
2023-03-29T05:19:29.908Z,7.80
2023-03-29T05:24:52.902Z,8.93
2023-03-29T05:30:15.489Z,7.90
2023-03-29T05:35:46.091Z,13.05
2023-03-29T05:41:07.176Z,13.73
2023-03-29T05:46:47.979Z,10.57
2023-03-29T05:52:11.696Z,11.60
2023-03-29T05:57:35.020Z,7.90
2023-03-29T06:03:06.459Z,11.10
2023-03-29T06:08:33.556Z,10.27
2023-03-29T06:14:03.831Z,9.80
2023-03-29T06:19:25.869Z,9.85
2023-03-29T06:24:49.018Z,3.90
2023-03-29T06:30:19.345Z,7.13
2023-03-29T06:35:47.229Z,9.77
2023-03-29T06:41:11.700Z,4.85
2023-03-29T06:47:10.252Z,4.30
2023-03-29T06:52:30.850Z,5.57
2023-03-29T06:57:52.774Z,3.15
2023-03-29T07:03:20.274Z,3.85
2023-03-29T07:08:45.101Z,4.43
2023-03-29T07:14:33.536Z,3.50
2023-03-29T07:19:55.059Z,3.67
2023-03-29T07:25:38.835Z,4.20
2023-03-29T07:31:06.819Z,4.00
2023-03-29T07:36:34.476Z,3.08
2023-03-29T07:41:57.771Z,3.72
2023-03-29T07:47:19.704Z,3.05
2023-03-29T07:52:41.485Z,2.10
2023-03-29T07:58:04.359Z,3.67
2023-03-29T08:03:27.890Z,2.90
2023-03-29T08:08:48.906Z,2.60
2023-03-29T08:14:11.632Z,2.60
2023-03-29T08:19:56.037Z,2.78
2023-03-29T08:25:18.624Z,2.72
2023-03-29T08:30:43.567Z,2.45
2023-03-29T08:36:04.722Z,2.65
2023-03-29T08:42:11.523Z,2.13
2023-03-29T08:47:47.091Z,2.38
2023-03-29T08:53:35.189Z,3.47
2023-03-29T08:59:19.657Z,2.85
2023-03-29T09:04:42.579Z,2.70
2023-03-29T09:10:47.760Z,2.70
2023-03-29T09:16:45.100Z,2.85
2023-03-29T09:22:32.615Z,2.75
2023-03-29T09:28:18.381Z,2.78
2023-03-29T09:33:59.464Z,2.95
2023-03-29T09:39:32.000Z,3.25
2023-03-29T09:45:08.525Z,2.35
2023-03-29T09:50:38.545Z,2.50
2023-03-29T09:56:02.355Z,2.17
2023-03-29T10:01:38.668Z,2.50
2023-03-29T10:07:01.693Z,2.15
2023-03-29T10:12:23.244Z,1.55
2023-03-29T10:17:46.268Z,1.45
2023-03-29T10:23:09.255Z,1.95
2023-03-29T10:28:32.175Z,1.92
2023-03-29T10:33:56.204Z,1.88
2023-03-29T10:39:17.344Z,2.25
2023-03-29T10:44:38.685Z,1.40
2023-03-29T10:49:59.737Z,1.10
2023-03-29T10:55:25.248Z,1.60
2023-03-29T11:00:55.355Z,1.30
2023-03-29T11:06:28.179Z,1.48
2023-03-29T11:12:15.613Z,1.40
2023-03-29T11:18:09.757Z,1.50
2023-03-29T11:23:48.778Z,1.27
2023-03-29T11:29:40.149Z,1.83
2023-03-29T11:35:19.167Z,1.35
2023-03-29T11:40:43.132Z,1.17
2023-03-29T11:46:14.043Z,1.73
2023-03-29T11:51:41.389Z,1.65
2023-03-29T11:57:07.263Z,2.35
2023-03-29T12:02:37.230Z,1.52
2023-03-29T12:08:09.306Z,1.85
2023-03-29T12:14:05.061Z,1.77
2023-03-29T12:19:40.386Z,1.70
2023-03-29T12:25:06.453Z,1.95
2023-03-29T12:30:45.262Z,2.10
2023-03-29T12:36:32.654Z,1.52
2023-03-29T12:42:22.187Z,1.70
2023-03-29T12:48:02.424Z,2.00
2023-03-29T12:53:26.996Z,2.30
2023-03-29T12:59:16.899Z,1.92
2023-03-29T13:04:50.233Z,2.00
2023-03-29T13:10:31.411Z,1.95
2023-03-29T13:15:52.356Z,2.40
2023-03-29T13:21:28.582Z,2.22
2023-03-29T13:26:57.559Z,2.35
2023-03-29T13:32:27.920Z,1.80
2023-03-29T13:38:00.210Z,2.00
2023-03-29T13:43:30.993Z,2.20
2023-03-29T13:49:01.733Z,1.80
2023-03-29T13:54:41.779Z,2.03
2023-03-29T14:00:18.144Z,3.10
2023-03-29T14:05:41.915Z,2.10
2023-03-29T14:11:05.511Z,2.28
2023-03-29T14:16:32.893Z,1.88
2023-03-29T14:21:53.486Z,1.60
2023-03-29T14:27:16.120Z,2.15
2023-03-29T14:32:39.320Z,2.00
2023-03-29T14:38:01.653Z,1.77
2023-03-29T14:43:24.207Z,2.38
2023-03-29T14:48:45.585Z,1.77
2023-03-29T14:54:07.555Z,2.20
2023-03-29T14:59:36.845Z,1.92
2023-03-29T15:05:08.562Z,1.50
2023-03-29T15:10:33.383Z,1.60
2023-03-29T15:16:00.834Z,1.73
2023-03-29T15:21:22.758Z,1.98
2023-03-29T15:26:43.626Z,2.45
2023-03-29T15:32:04.404Z,2.60
2023-03-29T15:37:25.448Z,2.08
2023-03-29T15:42:46.622Z,2.00
2023-03-29T15:48:19.881Z,1.85
2023-03-29T15:53:41.222Z,2.50
2023-03-29T15:59:02.177Z,2.40
2023-03-29T16:04:23.005Z,2.10
2023-03-29T16:09:45.257Z,2.47
2023-03-29T16:15:15.939Z,3.35
2023-03-29T16:20:38.321Z,2.25
2023-03-29T16:25:59.557Z,2.17
2023-03-29T16:31:23.608Z,2.58
2023-03-29T16:36:45.095Z,2.35
2023-03-29T16:42:06.278Z,2.53
2023-03-29T16:47:27.515Z,2.13
2023-03-29T16:52:51.507Z,2.08
2023-03-29T16:58:12.495Z,2.83
2023-03-29T17:03:33.138Z,2.95
2023-03-29T17:08:53.959Z,2.40
2023-03-29T17:14:15.404Z,4.35
2023-03-29T17:19:36.170Z,4.07
2023-03-29T17:24:57.166Z,3.40
2023-03-29T17:30:18.315Z,3.25
2023-03-29T17:35:41.761Z,2.38
2023-03-29T17:41:04.503Z,3.30
2023-03-29T17:46:25.997Z,4.20
2023-03-29T17:51:46.988Z,3.55
2023-03-29T17:57:07.796Z,9.00
2023-03-29T18:02:28.496Z,6.47
2023-03-29T18:07:49.758Z,4.95
2023-03-29T18:13:13.938Z,4.70
2023-03-29T18:18:34.918Z,4.28
2023-03-29T18:23:57.023Z,4.07
2023-03-29T18:29:18.211Z,4.28
2023-03-29T18:34:39.483Z,4.22
2023-03-29T18:40:00.382Z,4.78
2023-03-29T18:45:22.302Z,4.32
2023-03-29T18:50:47.003Z,4.40
2023-03-29T18:56:08.205Z,3.53
2023-03-29T19:01:28.882Z,4.05
2023-03-29T19:06:49.557Z,3.78
2023-03-29T19:12:10.597Z,9.00
2023-03-29T19:17:32.213Z,6.43
2023-03-29T19:22:53.548Z,6.25
2023-03-29T19:28:14.537Z,9.57
2023-03-29T19:33:35.193Z,8.95
2023-03-29T19:38:56.161Z,8.90
2023-03-29T19:44:17.458Z,7.90
2023-03-29T19:49:38.723Z,5.88
2023-03-29T19:54:59.819Z,6.15
2023-03-29T20:00:24.458Z,6.18
2023-03-29T20:05:46.862Z,5.10
2023-03-29T20:11:10.367Z,5.53
2023-03-29T20:16:34.380Z,6.88
2023-03-29T20:21:57.792Z,10.57
2023-03-29T20:27:18.666Z,9.85
2023-03-29T20:32:39.765Z,11.25
2023-03-29T20:38:00.727Z,8.85
2023-03-29T20:43:21.525Z,12.27
2023-03-29T20:48:54.420Z,19.67
2023-03-29T20:54:15.386Z,21.30
2023-03-29T20:59:38.028Z,17.42
2023-03-29T21:05:00.297Z,18.85
2023-03-29T21:10:23.741Z,20.40
2023-03-29T21:15:46.490Z,14.23
2023-03-29T21:21:11.777Z,10.85
2023-03-29T21:26:32.868Z,5.85
2023-03-29T21:31:53.797Z,6.47
2023-03-29T21:37:15.349Z,6.03
2023-03-29T21:42:36.276Z,6.88
2023-03-29T21:47:57.363Z,7.15
2023-03-29T21:53:18.533Z,5.25
2023-03-29T21:58:39.355Z,4.25
2023-03-29T22:04:00.287Z,4.68
2023-03-29T22:09:21.296Z,6.30
2023-03-29T22:14:42.094Z,6.22
2023-03-29T22:20:13.778Z,5.13
2023-03-29T22:25:37.199Z,6.00
2023-03-29T22:31:02.188Z,5.57
2023-03-29T22:36:26.353Z,5.68
2023-03-29T22:41:47.278Z,6.85
2023-03-29T22:47:08.414Z,5.75
2023-03-29T22:52:29.310Z,6.70
2023-03-29T22:57:49.945Z,8.80
2023-03-29T23:03:10.622Z,6.13
2023-03-29T23:08:33.262Z,7.10
2023-03-29T23:13:54.260Z,6.72
2023-03-29T23:19:15.023Z,7.72
2023-03-29T23:24:35.614Z,7.40
2023-03-29T23:29:56.404Z,7.00
2023-03-29T23:35:17.072Z,7.35
2023-03-29T23:40:37.799Z,6.90
2023-03-29T23:46:01.143Z,7.40
2023-03-29T23:51:28.833Z,9.52
2023-03-29T23:56:49.848Z,7.72
